Time;durP1;ratioP1;P1;durP2;ratioP2;P2;SDS_P1;SDS_P2;PMS_P1;PMS_P2;Temp;Humidity;BMP_temperature;BMP_pressure;BME280_temperature;BME280_humidity;BME280_pressure;Samples;Min_cycle;Max_cycle;Signal;HPM_P1;HPM_P2
2022/07/28 18:01:57;;;;;;;6.80;1.60;;;27.10;61.50;;;;;;5113054;27;1284328;-49
2022/07/28 18:04:24;;;;;;;7.65;1.52;;;27.00;62.20;;;;;;5134255;27;20054;-52
2022/07/28 18:06:50;;;;;;;3.88;1.58;;;26.60;62.30;;;;;;5127514;28;20412;-52
2022/07/28 18:09:17;;;;;;;5.55;1.60;;;26.30;63.30;;;;;;5123783;28;20054;-45
2022/07/28 18:11:44;;;;;;;6.40;1.70;;;26.10;64.00;;;;;;5124999;27;20044;-51
2022/07/28 18:14:23;;;;;;;7.78;1.63;;;26.10;64.00;;;;;;5125865;28;20460;-44
2022/07/28 18:16:50;;;;;;;7.00;1.90;;;26.00;63.20;;;;;;5130024;27;20047;-55
2022/07/28 18:19:17;;;;;;;5.65;1.45;;;26.00;63.30;;;;;;5129445;27;20042;-50
2022/07/28 18:21:43;;;;;;;6.43;1.63;;;25.90;62.70;;;;;;5129338;28;20042;-49
2022/07/28 18:24:10;;;;;;;9.00;1.67;;;25.90;63.10;;;;;;5130447;28;20071;-45
2022/07/28 18:26:37;;;;;;;5.35;1.60;;;25.60;62.20;;;;;;5129286;27;20642;-55
2022/07/28 18:29:04;;;;;;;8.52;1.70;;;25.10;62.60;;;;;;5130228;28;20040;-55
2022/07/28 18:31:31;;;;;;;7.03;1.48;;;24.80;63.40;;;;;;5130910;28;20051;-46
2022/07/28 18:33:58;;;;;;;7.13;1.67;;;24.50;64.40;;;;;;5130679;28;20039;-51
2022/07/28 18:36:24;;;;;;;5.28;1.38;;;24.30;65.40;;;;;;5130319;27;20089;-53
2022/07/28 18:38:51;;;;;;;9.68;1.73;;;24.10;65.80;;;;;;5130459;28;20047;-58
2022/07/28 18:41:18;;;;;;;4.57;1.50;;;23.90;66.70;;;;;;5130089;28;20039;-49
2022/07/28 18:43:45;;;;;;;5.88;1.70;;;23.70;67.60;;;;;;5123841;28;20440;-52
2022/07/28 18:46:12;;;;;;;8.40;1.58;;;23.40;68.60;;;;;;5121158;27;20039;-55
2022/07/28 18:48:39;;;;;;;9.48;1.73;;;23.30;69.40;;;;;;5128128;28;20066;-46
2022/07/28 18:51:06;;;;;;;4.85;1.30;;;23.20;69.70;;;;;;5126206;28;20043;-51
2022/07/28 18:53:33;;;;;;;7.80;1.77;;;23.20;70.00;;;;;;5130255;28;20050;-49
2022/07/28 18:56:00;;;;;;;6.95;1.70;;;23.00;70.60;;;;;;5130175;27;20441;-53
2022/07/28 18:58:26;;;;;;;8.77;1.40;;;22.90;71.10;;;;;;5130105;28;20051;-52
2022/07/28 19:00:53;;;;;;;8.90;2.20;;;22.70;71.80;;;;;;5129867;27;20062;-54
2022/07/28 19:03:20;;;;;;;6.30;1.60;;;22.60;72.20;;;;;;5128879;27;20100;-51
2022/07/28 19:05:47;;;;;;;6.30;1.60;;;22.50;72.50;;;;;;5126164;27;20035;-50
2022/07/28 19:08:13;;;;;;;7.35;1.42;;;22.40;73.10;;;;;;5127473;28;20428;-52
2022/07/28 19:10:42;;;;;;;5.35;1.40;;;22.30;73.30;;;;;;5128682;28;20066;-47
2022/07/28 19:13:09;;;;;;;9.50;1.60;;;22.20;73.90;;;;;;5114308;28;20065;-49
2022/07/28 19:15:38;;;;;;;5.88;2.10;;;22.10;74.20;;;;;;5115578;27;20074;-53
2022/07/28 19:18:05;;;;;;;7.70;1.48;;;22.00;74.40;;;;;;5112905;28;20140;-53
2022/07/28 19:20:37;;;;;;;8.32;1.85;;;21.90;74.60;;;;;;5109208;28;20397;-49
2022/07/28 19:23:03;;;;;;;6.97;1.63;;;21.80;74.80;;;;;;5116173;28;20093;-54
2022/07/28 19:25:31;;;;;;;6.38;1.20;;;21.70;75.00;;;;;;5115867;27;20512;-52
2022/07/28 19:27:58;;;;;;;7.10;1.38;;;21.70;75.30;;;;;;5108468;28;20440;-49
2022/07/28 19:30:24;;;;;;;6.88;1.73;;;21.60;75.50;;;;;;5114913;28;20066;-51
2022/07/28 19:32:52;;;;;;;6.72;2.17;;;21.50;75.70;;;;;;5114546;28;20048;-51
2022/07/28 19:35:18;;;;;;;5.70;1.42;;;21.40;76.00;;;;;;5115807;28;20082;-44
2022/07/28 19:37:46;;;;;;;11.93;2.88;;;21.40;76.40;;;;;;5113577;28;20053;-48
2022/07/28 19:40:12;;;;;;;5.00;1.60;;;21.20;76.70;;;;;;5114358;28;20077;-53
2022/07/28 19:42:39;;;;;;;8.38;1.63;;;21.10;76.90;;;;;;5112741;28;20058;-47
2022/07/28 19:45:06;;;;;;;7.63;2.30;;;21.00;77.20;;;;;;5108992;28;20039;-54
2022/07/28 19:47:33;;;;;;;7.28;2.00;;;21.00;77.40;;;;;;5114095;28;20039;-55
2022/07/28 19:50:03;;;;;;;6.85;2.10;;;20.90;77.50;;;;;;5113178;27;20067;-52
2022/07/28 19:52:30;;;;;;;4.80;1.90;;;20.90;77.80;;;;;;5114834;28;20031;-52
2022/07/28 19:54:57;;;;;;;5.82;1.85;;;20.80;78.00;;;;;;5114060;28;20040;-57
2022/07/28 19:57:25;;;;;;;10.30;1.80;;;20.70;78.50;;;;;;5113476;28;20036;-53
2022/07/28 19:59:52;;;;;;;6.88;1.63;;;20.60;78.90;;;;;;5115161;28;20096;-54
2022/07/28 20:02:19;;;;;;;4.90;1.67;;;20.50;79.20;;;;;;5114337;28;20051;-51
2022/07/28 20:04:45;;;;;;;8.63;1.75;;;20.40;79.60;;;;;;5115116;28;20474;-51
2022/07/28 20:07:12;;;;;;;4.53;1.58;;;20.30;79.60;;;;;;5115254;28;20402;-51
2022/07/28 20:09:39;;;;;;;6.38;1.95;;;20.30;79.70;;;;;;5113332;28;20032;-54
2022/07/28 20:12:07;;;;;;;6.20;1.92;;;20.20;80.10;;;;;;5113406;28;20040;-47
2022/07/28 20:14:35;;;;;;;6.88;1.98;;;20.20;80.30;;;;;;5113981;28;20051;-51
2022/07/28 20:17:02;;;;;;;11.35;2.20;;;20.20;80.40;;;;;;5114742;28;20043;-53
2022/07/28 20:19:29;;;;;;;5.63;2.05;;;20.10;80.30;;;;;;5110943;28;20474;-52
2022/07/28 20:21:56;;;;;;;5.28;1.83;;;20.10;80.60;;;;;;5110911;28;20084;-58
2022/07/28 20:24:22;;;;;;;8.65;2.00;;;20.00;80.70;;;;;;5111794;28;20043;-51
2022/07/28 20:26:49;;;;;;;7.72;1.40;;;20.00;80.70;;;;;;5112414;28;20036;-51
2022/07/28 20:29:16;;;;;;;4.10;1.33;;;19.90;81.00;;;;;;5110578;28;20466;-47
2022/07/28 20:31:43;;;;;;;5.53;1.83;;;19.90;81.10;;;;;;5112754;28;20047;-54
2022/07/28 20:34:11;;;;;;;4.63;1.52;;;19.90;81.30;;;;;;5112569;28;20085;-47
2022/07/28 20:36:38;;;;;;;6.28;1.58;;;19.80;81.50;;;;;;5113502;28;20496;-48
2022/07/28 20:39:05;;;;;;;5.85;1.60;;;19.80;81.50;;;;;;5111557;28;20499;-50
2022/07/28 20:41:52;;;;;;;9.07;1.60;;;19.70;81.70;;;;;;5109508;28;20092;-53
2022/07/28 20:44:19;;;;;;;6.43;1.60;;;19.60;82.00;;;;;;5112021;28;20046;-53
2022/07/28 20:46:57;;;;;;;8.65;1.70;;;19.50;82.10;;;;;;5114369;27;20032;-48
2022/07/28 20:49:23;;;;;;;4.28;1.48;;;19.50;82.30;;;;;;5109584;28;20040;-46
2022/07/28 20:51:50;;;;;;;7.90;1.63;;;19.50;82.60;;;;;;5112268;28;20482;-50
2022/07/28 20:54:17;;;;;;;7.40;1.90;;;19.40;82.50;;;;;;5113873;28;20043;-53
2022/07/28 20:56:44;;;;;;;6.47;1.90;;;19.40;82.50;;;;;;5110475;28;20043;-52
2022/07/28 20:59:12;;;;;;;9.68;2.20;;;19.40;82.80;;;;;;5113969;28;20039;-51
2022/07/28 21:01:38;;;;;;;6.80;1.42;;;19.30;83.00;;;;;;5112273;28;20121;-54
2022/07/28 21:04:05;;;;;;;6.82;1.55;;;19.30;83.30;;;;;;5112636;28;20044;-50
2022/07/28 21:06:37;;;;;;;5.13;1.50;;;19.20;83.00;;;;;;5112179;28;20048;-50
2022/07/28 21:09:04;;;;;;;5.53;1.50;;;19.20;83.50;;;;;;5109565;28;20044;-47
2022/07/28 21:11:31;;;;;;;6.32;1.40;;;19.10;83.70;;;;;;5114032;28;20043;-48
2022/07/28 21:14:01;;;;;;;8.82;1.67;;;19.00;84.00;;;;;;5112182;28;20039;-53
2022/07/28 21:16:27;;;;;;;6.93;1.67;;;19.00;84.10;;;;;;5112332;28;20043;-56
2022/07/28 21:18:54;;;;;;;6.65;1.60;;;19.00;84.20;;;;;;5112654;28;20036;-52
2022/07/28 21:21:21;;;;;;;7.95;1.60;;;18.90;84.20;;;;;;5112903;28;20126;-51
2022/07/28 21:23:48;;;;;;;4.90;1.50;;;18.90;84.60;;;;;;5113619;28;20043;-56
2022/07/28 21:26:15;;;;;;;4.97;1.63;;;18.90;84.50;;;;;;5112440;28;20084;-54
2022/07/28 21:31:27;;;;;;;;;;;18.80;84.80;;;;;;5113394;28;20040;-45
2022/07/28 21:33:54;;;;;;;8.32;1.48;;;18.80;85.50;;;;;;5113360;28;19935;-50
2022/07/28 21:36:21;;;;;;;5.60;1.48;;;18.80;85.20;;;;;;5112870;28;20479;-54
2022/07/28 21:38:48;;;;;;;6.63;1.55;;;18.70;85.30;;;;;;5113266;28;20048;-53
2022/07/28 21:41:17;;;;;;;4.47;1.48;;;18.70;85.40;;;;;;5112430;28;20085;-56
2022/07/28 21:43:44;;;;;;;10.25;2.15;;;18.60;85.60;;;;;;5113291;28;20487;-48
2022/07/28 21:46:10;;;;;;;4.85;1.75;;;18.60;85.80;;;;;;5111450;28;20104;-53
2022/07/28 21:48:37;;;;;;;7.03;1.55;;;18.60;85.70;;;;;;5113294;28;20410;-51
2022/07/28 21:51:04;;;;;;;6.07;1.70;;;18.60;86.10;;;;;;5113540;28;20051;-51
2022/07/28 21:53:44;;;;;;;6.38;1.90;;;18.60;86.00;;;;;;5113050;28;20046;-52
2022/07/28 21:56:12;;;;;;;7.28;1.83;;;18.50;86.10;;;;;;5113371;28;20071;-56
2022/07/28 21:58:39;;;;;;;7.35;1.77;;;18.40;86.10;;;;;;5112902;28;20046;-50
2022/07/28 22:01:05;;;;;;;8.90;1.65;;;18.40;86.40;;;;;;5109641;28;20040;-51
2022/07/28 22:03:32;;;;;;;6.78;1.95;;;18.40;86.40;;;;;;5110702;28;20093;-55
2022/07/28 22:05:59;;;;;;;4.63;1.60;;;18.40;86.00;;;;;;5111530;28;20047;-51
2022/07/28 22:08:26;;;;;;;9.70;1.83;;;18.40;86.00;;;;;;5113215;28;20486;-52
2022/07/28 22:10:52;;;;;;;6.82;1.80;;;18.40;86.00;;;;;;5111941;28;20048;-51
2022/07/28 22:13:19;;;;;;;6.10;1.80;;;18.40;86.20;;;;;;5112617;28;20093;-50
2022/07/28 22:15:46;;;;;;;6.03;1.48;;;18.40;86.20;;;;;;5112450;28;20054;-52
2022/07/28 22:18:13;;;;;;;7.40;1.50;;;18.40;86.20;;;;;;5111261;28;20067;-48
2022/07/28 22:20:42;;;;;;;5.30;1.65;;;18.30;86.30;;;;;;5111563;28;20040;-49
2022/07/28 22:23:10;;;;;;;6.25;1.58;;;18.30;86.30;;;;;;5113182;28;20039;-48
2022/07/28 22:25:54;;;;;;;;;;;18.20;86.50;;;;;;5106082;28;20078;-56
2022/07/28 22:28:21;;;;;;;6.90;1.52;;;18.30;86.90;;;;;;5109046;28;20317;-50
2022/07/28 22:30:56;;;;;;;4.47;1.58;;;18.30;86.50;;;;;;5110203;28;20432;-50
2022/07/28 22:33:22;;;;;;;5.25;1.80;;;18.20;86.40;;;;;;5113253;28;20437;-51
2022/07/28 22:35:50;;;;;;;5.25;1.70;;;18.20;86.60;;;;;;5112494;28;20123;-50
2022/07/28 22:38:17;;;;;;;5.75;1.73;;;18.30;86.60;;;;;;5109659;28;20067;-50
2022/07/28 22:40:43;;;;;;;5.97;1.70;;;18.20;86.80;;;;;;5112911;28;20070;-50
2022/07/28 22:43:10;;;;;;;8.05;2.00;;;18.20;86.80;;;;;;5111670;28;20067;-51
2022/07/28 22:45:37;;;;;;;4.30;1.70;;;18.20;86.90;;;;;;5112190;28;20035;-49
2022/07/28 22:48:17;;;;;;;6.65;2.08;;;18.20;87.10;;;;;;5115885;28;20046;-57
2022/07/28 22:50:43;;;;;;;5.25;2.05;;;18.20;87.10;;;;;;5115474;28;20067;-48
2022/07/28 22:53:10;;;;;;;6.68;1.73;;;18.20;87.20;;;;;;5116621;28;20105;-47
2022/07/28 22:55:37;;;;;;;6.53;2.08;;;18.20;87.20;;;;;;5116743;28;20039;-47
2022/07/28 22:58:21;;;;;;;4.70;1.75;;;18.20;87.30;;;;;;5116700;28;20390;-49
2022/07/28 23:00:48;;;;;;;5.47;1.92;;;18.20;87.50;;;;;;5114749;28;20046;-52
2022/07/28 23:03:17;;;;;;;8.27;1.98;;;18.10;87.40;;;;;;5114622;28;19963;-47
2022/07/28 23:05:44;;;;;;;5.65;2.22;;;18.10;87.70;;;;;;5114029;28;20428;-46
2022/07/28 23:08:11;;;;;;;6.03;1.88;;;18.10;87.90;;;;;;5116357;27;20046;-53
2022/07/28 23:10:38;;;;;;;7.88;1.75;;;18.10;88.10;;;;;;5116038;28;20406;-49
